createdAt,value
2018-05-24T00:01:34.826Z,13.37
2018-05-24T00:04:01.191Z,13.50
2018-05-24T00:06:27.864Z,13.33
2018-05-24T00:08:54.214Z,14.90
2018-05-24T00:11:20.518Z,14.97
2018-05-24T00:13:46.852Z,15.00
2018-05-24T00:16:13.188Z,16.50
2018-05-24T00:18:40.230Z,16.37
2018-05-24T00:21:07.321Z,16.17
2018-05-24T00:23:33.656Z,15.73
2018-05-24T00:26:00.033Z,16.43
2018-05-24T00:28:26.413Z,17.30
2018-05-24T00:30:52.764Z,18.57
2018-05-24T00:33:19.727Z,18.20
2018-05-24T00:35:46.917Z,19.57
2018-05-24T00:38:13.574Z,19.80
2018-05-24T00:40:39.923Z,19.60
2018-05-24T00:43:06.323Z,20.90
2018-05-24T00:45:33.685Z,23.47
2018-05-24T00:48:00.051Z,22.53
2018-05-24T00:50:26.393Z,23.67
2018-05-24T00:52:52.747Z,22.17
2018-05-24T00:55:45.459Z,22.23
2018-05-24T00:58:11.787Z,24.90
2018-05-24T01:00:38.126Z,24.07
2018-05-24T01:03:04.487Z,25.33
2018-05-24T01:05:30.829Z,23.50
2018-05-24T01:07:57.185Z,24.70
2018-05-24T01:10:24.253Z,23.93
2018-05-24T01:12:50.547Z,25.60
2018-05-24T01:15:16.894Z,23.83
2018-05-24T01:17:44.015Z,24.57
2018-05-24T01:20:10.465Z,25.80
2018-05-24T01:22:37.590Z,25.63
2018-05-24T01:25:03.923Z,25.93
2018-05-24T01:27:30.284Z,25.40
2018-05-24T01:29:56.639Z,26.83
2018-05-24T01:32:22.986Z,27.97
2018-05-24T01:34:49.303Z,29.03
2018-05-24T01:37:27.761Z,27.57
2018-05-24T01:39:54.096Z,24.33
2018-05-24T01:42:20.458Z,27.47
2018-05-24T01:44:46.838Z,25.73
2018-05-24T01:47:13.224Z,25.17
2018-05-24T01:49:40.240Z,26.53
2018-05-24T01:52:06.608Z,25.77
2018-05-24T01:54:32.932Z,25.43
2018-05-24T01:57:00.014Z,23.67
2018-05-24T01:59:26.336Z,23.30
2018-05-24T02:01:52.646Z,21.70
2018-05-24T02:04:20.031Z,24.37
2018-05-24T02:06:46.352Z,26.00
2018-05-24T02:09:12.711Z,23.63
2018-05-24T02:11:39.714Z,26.03
2018-05-24T02:14:06.782Z,24.30
2018-05-24T02:16:33.156Z,23.50
2018-05-24T02:18:59.504Z,23.87
2018-05-24T02:21:26.576Z,24.00
2018-05-24T02:23:52.897Z,21.93
2018-05-24T02:26:19.237Z,21.93
2018-05-24T02:28:46.388Z,21.57
2018-05-24T02:31:12.784Z,22.37
2018-05-24T02:33:39.098Z,21.43
2018-05-24T02:36:05.688Z,22.17
2018-05-24T02:38:32.602Z,20.17
2018-05-24T02:40:58.925Z,20.53
2018-05-24T02:43:25.270Z,19.97
2018-05-24T02:45:51.606Z,19.83
2018-05-24T02:48:17.987Z,20.00
2018-05-24T02:50:44.374Z,19.13
2018-05-24T02:53:11.484Z,18.17
2018-05-24T02:55:37.766Z,17.37
2018-05-24T02:58:04.105Z,17.97
2018-05-24T03:00:30.406Z,17.50
2018-05-24T03:02:56.769Z,21.80
2018-05-24T03:05:23.862Z,18.40
2018-05-24T03:07:50.178Z,17.27
2018-05-24T03:10:16.513Z,17.87
2018-05-24T03:12:43.693Z,16.23
2018-05-24T03:15:10.799Z,17.90
2018-05-24T03:17:37.795Z,16.90
2018-05-24T03:20:04.126Z,16.33
2018-05-24T03:22:31.274Z,17.93
2018-05-24T03:24:57.863Z,16.03
2018-05-24T03:27:24.234Z,17.20
2018-05-24T03:29:50.648Z,17.73
2018-05-24T03:32:17.193Z,19.27
2018-05-24T03:34:43.538Z,15.80
2018-05-24T03:37:09.848Z,16.43
2018-05-24T03:39:36.207Z,16.03
2018-05-24T03:42:02.560Z,16.43
2018-05-24T03:44:29.636Z,16.73
2018-05-24T03:46:55.947Z,16.13
2018-05-24T03:49:22.299Z,16.50
2018-05-24T03:51:48.614Z,15.40
2018-05-24T03:54:15.684Z,17.40
2018-05-24T03:56:42.070Z,15.33
2018-05-24T04:02:21.127Z,15.23
2018-05-24T04:04:52.224Z,14.50
2018-05-24T04:07:18.549Z,15.17
2018-05-24T04:09:45.183Z,15.60
2018-05-24T04:12:11.596Z,15.80
2018-05-24T04:14:38.658Z,14.07
2018-05-24T04:17:05.110Z,13.70
2018-05-24T04:19:31.432Z,16.03
2018-05-24T04:21:57.816Z,13.07
2018-05-24T04:24:24.150Z,12.80
2018-05-24T04:26:51.246Z,12.50
2018-05-24T04:29:18.576Z,11.50
2018-05-24T04:31:45.704Z,11.70
2018-05-24T04:34:12.729Z,12.20
2018-05-24T04:36:39.130Z,14.07
2018-05-24T04:39:05.440Z,10.70
2018-05-24T04:41:31.713Z,11.87
2018-05-24T04:43:58.080Z,11.37
2018-05-24T04:46:25.164Z,10.93
2018-05-24T04:48:51.500Z,11.00
2018-05-24T04:51:17.775Z,10.90
2018-05-24T04:53:44.057Z,10.17
2018-05-24T04:56:10.592Z,9.47
2018-05-24T04:58:37.093Z,9.40
2018-05-24T05:01:04.203Z,10.43
2018-05-24T05:03:30.472Z,10.57
2018-05-24T05:05:56.760Z,10.03
2018-05-24T05:08:24.091Z,10.30
2018-05-24T05:10:51.372Z,9.70
2018-05-24T05:13:17.656Z,8.93
2018-05-24T05:15:45.213Z,10.63
2018-05-24T05:18:12.276Z,9.30
2018-05-24T05:20:38.546Z,9.53
2018-05-24T05:23:05.022Z,10.40
2018-05-24T05:25:32.004Z,11.60
2018-05-24T05:27:58.323Z,10.93
2018-05-24T05:30:24.598Z,8.20
2018-05-24T05:32:50.948Z,9.43
2018-05-24T05:35:18.410Z,9.00
2018-05-24T05:37:45.440Z,8.47
2018-05-24T05:40:11.717Z,9.20
2018-05-24T05:42:38.009Z,8.97
2018-05-24T05:45:04.298Z,9.73
2018-05-24T05:47:30.810Z,7.50
2018-05-24T05:49:57.079Z,8.47
2018-05-24T05:52:23.448Z,9.43
2018-05-24T05:54:49.670Z,8.60
2018-05-24T05:57:15.989Z,8.90
2018-05-24T05:59:42.395Z,9.10
2018-05-24T06:02:08.672Z,8.50
2018-05-24T06:04:34.942Z,8.53
2018-05-24T06:07:01.282Z,9.30
2018-05-24T06:09:27.558Z,8.57
2018-05-24T06:11:54.560Z,9.10
2018-05-24T06:14:20.836Z,7.97
2018-05-24T06:16:47.832Z,10.80
2018-05-24T06:19:14.088Z,9.60
2018-05-24T06:21:40.389Z,8.83
2018-05-24T06:24:06.671Z,7.97
2018-05-24T06:26:33.726Z,9.43
2018-05-24T06:29:00.017Z,7.47
2018-05-24T06:31:26.294Z,9.07
2018-05-24T06:33:53.344Z,6.97
2018-05-24T06:36:19.630Z,8.50
2018-05-24T06:38:45.917Z,7.83
2018-05-24T06:41:12.206Z,6.87
2018-05-24T06:43:38.498Z,10.53
2018-05-24T06:46:04.782Z,6.90
2018-05-24T06:48:31.086Z,10.10
2018-05-24T06:50:57.360Z,7.37
2018-05-24T06:53:23.648Z,10.03
2018-05-24T06:55:49.934Z,6.90
2018-05-24T06:58:16.199Z,7.10
2018-05-24T07:00:42.464Z,7.13
2018-05-24T07:03:09.489Z,8.47
2018-05-24T07:05:35.800Z,7.97
2018-05-24T07:08:03.090Z,7.10
2018-05-24T07:10:30.198Z,9.70
2018-05-24T07:12:56.570Z,8.80
2018-05-24T07:15:22.840Z,10.03
2018-05-24T07:17:49.130Z,10.60
2018-05-24T07:20:16.152Z,8.43
2018-05-24T07:22:42.422Z,10.00
2018-05-24T07:25:08.694Z,8.43
2018-05-24T07:27:34.962Z,8.27
2018-05-24T07:30:01.225Z,7.73
2018-05-24T07:32:27.506Z,8.43
2018-05-24T07:34:53.824Z,8.17
2018-05-24T07:37:20.214Z,7.87
2018-05-24T07:39:59.369Z,8.50
2018-05-24T07:42:29.162Z,7.80
2018-05-24T07:45:08.487Z,7.00
2018-05-24T07:57:09.452Z,11.83
2018-05-24T07:59:55.978Z,8.37
2018-05-24T08:02:29.388Z,11.07
2018-05-24T08:05:07.478Z,6.70
2018-05-24T08:07:45.656Z,7.03
2018-05-24T08:10:24.752Z,6.80
2018-05-24T08:12:52.631Z,6.70
2018-05-24T08:18:17.427Z,7.17
2018-05-24T08:23:39.168Z,7.20
2018-05-24T08:26:10.314Z,6.67
2018-05-24T08:28:39.756Z,7.03
2018-05-24T08:31:09.548Z,6.17
2018-05-24T08:33:35.896Z,6.13
2018-05-24T08:36:02.286Z,6.00
2018-05-24T08:38:29.316Z,7.60
2018-05-24T08:40:56.367Z,7.40
2018-05-24T08:43:22.665Z,7.27
2018-05-24T08:45:50.404Z,5.93
2018-05-24T08:48:17.389Z,6.23
2018-05-24T08:50:43.730Z,6.03
2018-05-24T08:53:10.118Z,7.07
2018-05-24T08:55:36.439Z,6.00
2018-05-24T08:58:02.786Z,6.17
2018-05-24T09:00:30.048Z,5.83
2018-05-24T09:02:56.352Z,5.63
2018-05-24T09:05:24.216Z,6.67
2018-05-24T09:07:52.151Z,8.90
2018-05-24T09:10:20.501Z,6.47
2018-05-24T09:25:42.644Z,6.33
2018-05-24T09:28:08.918Z,6.43
2018-05-24T09:30:35.173Z,7.03
2018-05-24T09:33:01.466Z,6.57
2018-05-24T09:35:27.733Z,6.83
2018-05-24T09:37:54.774Z,11.50
2018-05-24T09:40:21.060Z,29.17
2018-05-24T09:42:48.064Z,9.37
2018-05-24T09:45:14.334Z,7.80
2018-05-24T09:47:41.354Z,10.03
2018-05-24T09:50:07.626Z,7.57
2018-05-24T09:52:34.636Z,7.53
2018-05-24T09:55:00.921Z,7.70
2018-05-24T09:57:27.187Z,7.27
2018-05-24T09:59:53.468Z,7.90
2018-05-24T10:02:19.739Z,7.53
2018-05-24T10:04:46.075Z,8.10
2018-05-24T10:07:12.447Z,13.27
2018-05-24T10:09:39.515Z,8.13
2018-05-24T10:12:06.064Z,8.03
2018-05-24T10:14:32.393Z,8.63
2018-05-24T10:16:58.666Z,6.97
2018-05-24T10:19:24.961Z,8.43
2018-05-24T10:21:51.222Z,8.80
2018-05-24T10:24:17.503Z,8.40
2018-05-24T10:26:43.773Z,8.10
2018-05-24T10:29:10.043Z,9.43
2018-05-24T10:31:36.322Z,7.63
2018-05-24T10:34:02.621Z,7.97
2018-05-24T10:36:28.892Z,7.90
2018-05-24T10:38:55.220Z,7.17
2018-05-24T10:41:21.495Z,7.10
2018-05-24T10:43:47.780Z,6.93
2018-05-24T10:46:14.819Z,6.47
2018-05-24T10:48:41.095Z,6.33
2018-05-24T10:51:07.366Z,10.97
2018-05-24T10:53:33.656Z,6.60
2018-05-24T10:55:59.983Z,8.00
2018-05-24T10:58:26.216Z,8.20
2018-05-24T11:00:52.515Z,8.37
2018-05-24T11:03:18.810Z,9.37
2018-05-24T11:05:45.101Z,8.80
2018-05-24T11:08:11.382Z,10.57
2018-05-24T11:10:37.664Z,9.37
2018-05-24T11:13:03.931Z,10.00
2018-05-24T11:15:30.227Z,9.67
2018-05-24T11:17:56.499Z,11.20
2018-05-24T11:20:22.773Z,10.33
2018-05-24T11:22:49.155Z,9.63
2018-05-24T11:25:15.511Z,8.30
2018-05-24T11:27:41.763Z,9.50
2018-05-24T11:30:08.065Z,9.63
2018-05-24T11:32:35.131Z,9.60
2018-05-24T11:35:02.168Z,10.43
2018-05-24T11:37:29.215Z,9.47
2018-05-24T11:39:56.299Z,9.77
2018-05-24T11:42:22.595Z,9.80
2018-05-24T11:44:48.888Z,9.73
2018-05-24T11:47:16.214Z,10.30
2018-05-24T11:49:42.503Z,10.47
2018-05-24T11:52:08.813Z,8.40
2018-05-24T11:54:35.083Z,8.43
2018-05-24T11:57:01.365Z,10.20
2018-05-24T11:59:27.633Z,8.60
2018-05-24T12:01:54.672Z,9.27
2018-05-24T12:04:20.974Z,9.37
2018-05-24T12:06:47.264Z,9.27
2018-05-24T12:09:13.647Z,10.60
2018-05-24T12:11:39.981Z,7.87
2018-05-24T12:14:07.203Z,10.73
2018-05-24T12:16:33.525Z,8.33
2018-05-24T12:18:59.862Z,9.67
2018-05-24T12:21:26.276Z,9.80
2018-05-24T12:23:52.641Z,9.03
2018-05-24T12:26:18.947Z,8.33
2018-05-24T12:28:46.269Z,7.73
2018-05-24T12:31:13.565Z,9.17
2018-05-24T12:33:39.891Z,8.90
2018-05-24T12:36:06.288Z,7.93
2018-05-24T12:38:33.168Z,8.40
2018-05-24T12:40:59.605Z,7.83
2018-05-24T12:43:25.971Z,9.20
2018-05-24T12:45:52.658Z,9.00
2018-05-24T12:48:19.405Z,9.57
2018-05-24T12:50:46.147Z,8.40
2018-05-24T12:53:12.575Z,8.70
2018-05-24T12:55:39.819Z,8.87
2018-05-24T12:58:06.119Z,8.00
2018-05-24T13:00:32.909Z,10.27
2018-05-24T13:02:59.858Z,10.37
2018-05-24T13:05:27.109Z,14.43
2018-05-24T13:07:55.432Z,12.47
2018-05-24T13:10:22.563Z,8.07
2018-05-24T13:12:48.945Z,9.20
2018-05-24T13:15:16.047Z,9.70
2018-05-24T13:17:42.363Z,8.90
2018-05-24T13:20:08.927Z,9.07
2018-05-24T13:22:36.255Z,9.10
2018-05-24T13:25:03.399Z,9.57
2018-05-24T13:27:29.859Z,12.83
2018-05-24T13:29:57.056Z,9.03
2018-05-24T13:32:24.475Z,9.00
2018-05-24T13:34:50.823Z,11.53
2018-05-24T13:37:18.004Z,11.27
2018-05-24T13:39:45.784Z,11.13
2018-05-24T13:42:12.985Z,9.77
2018-05-24T13:44:39.363Z,11.00
2018-05-24T13:47:05.763Z,10.50
2018-05-24T13:49:32.903Z,10.57
2018-05-24T13:52:00.010Z,21.73
2018-05-24T13:54:27.725Z,11.13
2018-05-24T13:56:55.275Z,11.80
2018-05-24T13:59:23.479Z,16.90
2018-05-24T14:01:49.930Z,10.60
2018-05-24T14:04:16.283Z,11.80
2018-05-24T14:06:42.550Z,10.30
2018-05-24T14:09:09.701Z,12.90
2018-05-24T14:11:36.051Z,12.97
2018-05-24T14:14:02.379Z,12.27
2018-05-24T14:16:28.687Z,14.17
2018-05-24T14:18:55.111Z,12.73
2018-05-24T14:21:21.379Z,12.90
2018-05-24T14:23:47.672Z,12.13
2018-05-24T14:26:14.057Z,12.37
2018-05-24T14:28:40.337Z,14.20
2018-05-24T14:31:06.641Z,11.67
2018-05-24T14:33:32.918Z,12.27
2018-05-24T14:35:59.925Z,11.10
2018-05-24T14:38:26.193Z,13.07
2018-05-24T14:40:53.219Z,10.83
2018-05-24T14:43:19.622Z,11.70
2018-05-24T14:45:45.911Z,11.27
2018-05-24T14:48:12.964Z,11.27
2018-05-24T14:50:39.273Z,13.57
2018-05-24T14:53:06.309Z,12.23
2018-05-24T14:55:32.613Z,12.30
2018-05-24T14:57:58.951Z,11.77
2018-05-24T15:00:25.357Z,11.90
2018-05-24T15:02:51.647Z,12.30
2018-05-24T15:05:18.754Z,11.83
2018-05-24T15:07:44.996Z,11.67
2018-05-24T15:10:11.295Z,10.13
2018-05-24T15:12:37.561Z,12.67
2018-05-24T15:15:03.887Z,12.83
2018-05-24T15:17:30.158Z,12.30
2018-05-24T15:19:57.199Z,14.10
2018-05-24T15:22:24.246Z,15.07
2018-05-24T15:24:51.273Z,15.23
2018-05-24T15:27:21.300Z,15.77
2018-05-24T15:29:47.585Z,19.53
2018-05-24T15:32:13.878Z,16.40
2018-05-24T15:34:40.971Z,50.20
2018-05-24T15:37:07.715Z,24.30
2018-05-24T15:39:34.005Z,47.53
2018-05-24T15:42:01.038Z,70.10
2018-05-24T15:44:28.149Z,141.57
2018-05-24T15:46:54.449Z,115.80
2018-05-24T15:49:20.788Z,101.97
2018-05-24T15:51:47.081Z,131.37
2018-05-24T15:54:13.400Z,45.30
2018-05-24T15:56:40.430Z,41.53
2018-05-24T15:59:06.783Z,61.90
2018-05-24T16:01:33.091Z,34.30
2018-05-24T16:03:59.424Z,28.37
2018-05-24T16:06:25.718Z,59.33
2018-05-24T16:08:52.017Z,34.27
2018-05-24T16:11:18.307Z,19.33
2018-05-24T16:13:44.621Z,28.33
2018-05-24T16:16:10.942Z,32.20
2018-05-24T16:18:37.264Z,28.43
2018-05-24T16:21:03.570Z,23.43
2018-05-24T16:23:30.625Z,26.23
2018-05-24T16:25:56.932Z,26.90
2018-05-24T16:28:23.299Z,26.23
2018-05-24T16:30:49.592Z,19.77
2018-05-24T16:33:15.921Z,23.07
2018-05-24T16:35:42.216Z,25.40
2018-05-24T16:38:08.510Z,22.37
2018-05-24T16:40:34.809Z,25.60
2018-05-24T16:43:01.128Z,19.90
2018-05-24T16:45:27.503Z,20.73
2018-05-24T16:47:54.541Z,20.77
2018-05-24T16:50:21.589Z,17.50
2018-05-24T16:52:48.625Z,18.73
2018-05-24T16:55:14.953Z,21.07
2018-05-24T16:57:41.275Z,24.30
2018-05-24T17:00:07.576Z,26.57
2018-05-24T17:02:33.893Z,26.20
2018-05-24T17:05:00.201Z,20.97
2018-05-24T17:07:26.518Z,19.27
2018-05-24T17:09:53.563Z,21.13
2018-05-24T17:12:20.623Z,17.87
2018-05-24T17:14:46.919Z,23.47
2018-05-24T17:17:13.235Z,18.93
2018-05-24T17:19:39.627Z,24.53
2018-05-24T17:22:05.929Z,18.37
2018-05-24T17:24:32.225Z,23.70
2018-05-24T17:26:58.536Z,16.83
2018-05-24T17:29:25.129Z,24.93
2018-05-24T17:31:52.187Z,21.00
2018-05-24T17:34:19.278Z,24.87
2018-05-24T17:36:45.626Z,22.90
2018-05-24T17:39:11.910Z,18.70
2018-05-24T17:41:38.950Z,21.03
2018-05-24T17:44:06.015Z,19.07
2018-05-24T17:46:32.354Z,19.93
2018-05-24T17:48:58.656Z,20.30
2018-05-24T17:51:25.750Z,21.87
2018-05-24T18:03:40.785Z,21.50
2018-05-24T18:06:10.474Z,25.73
2018-05-24T18:08:36.845Z,15.53
2018-05-24T18:11:03.216Z,15.77
2018-05-24T18:13:30.372Z,14.70
2018-05-24T18:15:57.445Z,17.20
2018-05-24T18:18:23.819Z,19.07
2018-05-24T18:20:51.958Z,22.73
2018-05-24T18:23:18.329Z,38.80
2018-05-24T18:25:45.360Z,66.87
2018-05-24T18:28:11.696Z,94.80
2018-05-24T18:30:37.993Z,92.97
2018-05-24T18:33:04.398Z,65.60
2018-05-24T18:35:30.787Z,64.43
2018-05-24T18:37:58.155Z,66.37
2018-05-24T18:40:24.504Z,68.23
2018-05-24T18:42:50.910Z,82.70
2018-05-24T18:45:17.235Z,95.13
2018-05-24T18:47:46.821Z,51.37
2018-05-24T18:50:13.111Z,52.43
2018-05-24T18:52:40.184Z,36.00
2018-05-24T18:55:06.597Z,39.77
2018-05-24T18:57:34.717Z,49.80
2018-05-24T19:00:01.115Z,57.03
2018-05-24T19:02:28.236Z,25.70
2018-05-24T19:04:55.350Z,34.40
2018-05-24T19:07:22.087Z,33.87
2018-05-24T19:09:48.556Z,39.30
2018-05-24T19:12:14.877Z,41.70
2018-05-24T19:14:41.173Z,32.03
2018-05-24T19:17:09.045Z,27.00
2018-05-24T19:19:35.394Z,26.17
2018-05-24T19:22:01.727Z,27.13
2018-05-24T19:24:28.067Z,28.60
2018-05-24T19:26:55.095Z,42.37
2018-05-24T19:29:21.477Z,27.97
2018-05-24T19:31:48.542Z,28.27
2018-05-24T19:34:15.487Z,28.07
2018-05-24T19:36:42.969Z,30.83
2018-05-24T19:39:09.309Z,36.10
2018-05-24T19:41:35.655Z,32.77
2018-05-24T19:44:02.009Z,33.90
2018-05-24T19:46:28.339Z,32.37
2018-05-24T19:48:54.678Z,34.30
2018-05-24T19:51:20.996Z,37.10
2018-05-24T19:53:47.347Z,30.17
2018-05-24T19:56:13.700Z,32.30
2018-05-24T19:58:40.041Z,32.37
2018-05-24T20:01:06.584Z,36.23
2018-05-24T20:03:32.916Z,38.00
2018-05-24T20:05:59.439Z,37.97
2018-05-24T20:08:25.824Z,32.87
2018-05-24T20:10:52.190Z,40.20
2018-05-24T20:13:19.325Z,36.10
2018-05-24T20:15:47.400Z,40.47
2018-05-24T20:18:14.540Z,47.67
2018-05-24T20:20:40.933Z,39.23
2018-05-24T20:23:08.503Z,51.87
2018-05-24T20:25:34.928Z,46.33
2018-05-24T20:28:01.309Z,61.20
2018-05-24T20:30:28.549Z,44.67
2018-05-24T20:32:55.020Z,45.23
2018-05-24T20:35:21.348Z,60.17
2018-05-24T20:37:47.681Z,40.73
2018-05-24T20:40:14.981Z,38.77
2018-05-24T20:42:41.359Z,43.90
2018-05-24T20:45:09.407Z,44.30
2018-05-24T20:47:35.697Z,49.77
2018-05-24T20:50:02.044Z,37.53
2018-05-24T20:52:28.395Z,49.27
2018-05-24T20:54:54.762Z,41.30
2018-05-24T20:57:24.861Z,51.27
2018-05-24T20:59:51.937Z,43.10
2018-05-24T21:02:18.262Z,39.33
2018-05-24T21:04:45.297Z,46.17
2018-05-24T21:07:11.618Z,40.47
2018-05-24T21:09:37.926Z,41.50
2018-05-24T21:12:04.383Z,46.43
2018-05-24T21:14:31.466Z,48.50
2018-05-24T21:16:57.799Z,55.70
2018-05-24T21:19:24.137Z,55.07
2018-05-24T21:21:50.458Z,46.37
2018-05-24T21:24:16.774Z,42.33
2018-05-24T21:26:43.828Z,39.57
2018-05-24T21:29:10.179Z,40.73
2018-05-24T21:31:36.510Z,43.33
2018-05-24T21:34:02.849Z,40.17
2018-05-24T21:36:29.152Z,43.33
2018-05-24T21:38:55.471Z,42.53
2018-05-24T21:41:21.826Z,42.80
2018-05-24T21:43:49.201Z,45.40
2018-05-24T21:46:15.505Z,44.47
2018-05-24T21:48:41.809Z,46.43
2018-05-24T21:51:09.828Z,44.07
2018-05-24T21:53:36.124Z,48.90
2018-05-24T21:56:02.760Z,52.03
2018-05-24T21:58:30.737Z,52.90
2018-05-24T22:00:57.007Z,71.50
2018-05-24T22:03:23.318Z,45.57
2018-05-24T22:05:49.617Z,44.37
2018-05-24T22:08:16.926Z,48.37
2018-05-24T22:10:43.232Z,59.40
2018-05-24T22:13:10.501Z,54.87
2018-05-24T22:15:36.807Z,50.43
2018-05-24T22:18:03.113Z,52.40
2018-05-24T22:20:29.459Z,55.07
2018-05-24T22:22:55.759Z,58.20
2018-05-24T22:25:22.056Z,45.37
2018-05-24T22:27:48.343Z,44.50
2018-05-24T22:30:15.393Z,49.03
2018-05-24T22:32:41.693Z,46.17
2018-05-24T22:35:08.060Z,44.67
2018-05-24T22:37:34.383Z,48.93
2018-05-24T22:40:01.455Z,66.37
2018-05-24T22:42:27.741Z,49.73
2018-05-24T22:44:54.037Z,56.10
2018-05-24T22:47:20.355Z,53.90
2018-05-24T22:49:46.635Z,48.00
2018-05-24T22:52:13.656Z,68.17
2018-05-24T22:54:39.957Z,70.40
2018-05-24T22:57:09.570Z,53.40
2018-05-24T22:59:35.909Z,57.33
2018-05-24T23:02:02.941Z,53.33
2018-05-24T23:04:29.277Z,47.47
2018-05-24T23:06:55.565Z,49.97
2018-05-24T23:09:21.855Z,63.57
2018-05-24T23:11:48.167Z,64.67
2018-05-24T23:14:14.463Z,68.43
2018-05-24T23:16:40.769Z,80.43
2018-05-24T23:19:07.081Z,94.87
2018-05-24T23:21:34.120Z,83.23
2018-05-24T23:24:00.431Z,74.73
2018-05-24T23:26:26.777Z,49.83
2018-05-24T23:28:53.125Z,59.20
2018-05-24T23:31:19.410Z,64.17
2018-05-24T23:33:45.732Z,67.97
2018-05-24T23:36:12.776Z,54.17
2018-05-24T23:38:39.827Z,46.90
2018-05-24T23:41:06.910Z,47.80
2018-05-24T23:43:33.174Z,53.27
2018-05-24T23:45:59.708Z,50.77
2018-05-24T23:48:26.129Z,48.63
2018-05-24T23:50:53.149Z,48.83
2018-05-24T23:53:19.536Z,49.77
2018-05-24T23:55:45.913Z,53.73
2018-05-24T23:58:13.265Z,51.83
